sensor_id;sensor_type;location;lat;lon;timestamp;pressure;altitude;pressure_sealevel;temperature;humidity
29909;BME280;36247;51.952;6.146;2023-03-13T00:01:37;100147.91;;;8.62;100.00
29909;BME280;36247;51.952;6.146;2023-03-13T00:04:03;100139.06;;;8.59;100.00
29909;BME280;36247;51.952;6.146;2023-03-13T00:06:32;100127.59;;;8.57;100.00
29909;BME280;36247;51.952;6.146;2023-03-13T00:08:57;100117.00;;;8.52;100.00
29909;BME280;36247;51.952;6.146;2023-03-13T00:11:25;100117.00;;;8.54;100.00
29909;BME280;36247;51.952;6.146;2023-03-13T00:13:56;100101.16;;;8.52;100.00
29909;BME280;36247;51.952;6.146;2023-03-13T00:16:21;100102.91;;;8.50;100.00
29909;BME280;36247;51.952;6.146;2023-03-13T00:18:49;100100.25;;;8.50;100.00
29909;BME280;36247;51.952;6.146;2023-03-13T00:21:16;100094.97;;;8.50;100.00
29909;BME280;36247;51.952;6.146;2023-03-13T00:23:43;100089.69;;;8.50;100.00
29909;BME280;36247;51.952;6.146;2023-03-13T00:26:10;100078.31;;;8.56;100.00
29909;BME280;36247;51.952;6.146;2023-03-13T00:28:38;100070.38;;;8.53;100.00
29909;BME280;36247;51.952;6.146;2023-03-13T00:31:13;100055.44;;;8.55;100.00
29909;BME280;36247;51.952;6.146;2023-03-13T00:33:44;100058.06;;;8.53;100.00
29909;BME280;36247;51.952;6.146;2023-03-13T00:36:15;100062.50;;;8.57;100.00
29909;BME280;36247;51.952;6.146;2023-03-13T00:38:41;100047.59;;;8.65;100.00
29909;BME280;36247;51.952;6.146;2023-03-13T00:43:36;100029.13;;;8.67;100.00
29909;BME280;36247;51.952;6.146;2023-03-13T00:46:01;100023.91;;;8.73;100.00
29909;BME280;36247;51.952;6.146;2023-03-13T00:48:27;100031.84;;;8.73;100.00
29909;BME280;36247;51.952;6.146;2023-03-13T00:50:53;100022.19;;;8.77;100.00
29909;BME280;36247;51.952;6.146;2023-03-13T00:53:19;100023.03;;;8.76;100.00
29909;BME280;36247;51.952;6.146;2023-03-13T00:55:56;100025.66;;;8.71;100.00
29909;BME280;36247;51.952;6.146;2023-03-13T00:58:23;100029.09;;;8.65;100.00
29909;BME280;36247;51.952;6.146;2023-03-13T01:00:49;100019.41;;;8.58;100.00
29909;BME280;36247;51.952;6.146;2023-03-13T01:03:15;100007.00;;;8.51;100.00
29909;BME280;36247;51.952;6.146;2023-03-13T01:05:41;100000.78;;;8.44;100.00
29909;BME280;36247;51.952;6.146;2023-03-13T01:08:06;100004.22;;;8.42;100.00
29909;BME280;36247;51.952;6.146;2023-03-13T01:10:33;99977.81;;;8.40;100.00
29909;BME280;36247;51.952;6.146;2023-03-13T01:12:58;99979.56;;;8.38;100.00
29909;BME280;36247;51.952;6.146;2023-03-13T01:15:24;99976.91;;;8.37;100.00
29909;BME280;36247;51.952;6.146;2023-03-13T01:17:50;99968.13;;;8.36;100.00
29909;BME280;36247;51.952;6.146;2023-03-13T01:20:15;99965.47;;;8.35;100.00
29909;BME280;36247;51.952;6.146;2023-03-13T01:22:41;99955.78;;;8.35;100.00
29909;BME280;36247;51.952;6.146;2023-03-13T01:25:07;99960.22;;;8.36;100.00
29909;BME280;36247;51.952;6.146;2023-03-13T01:27:32;99939.97;;;8.37;100.00
29909;BME280;36247;51.952;6.146;2023-03-13T01:29:58;99936.47;;;8.39;100.00
29909;BME280;36247;51.952;6.146;2023-03-13T01:32:24;99927.66;;;8.39;100.00
29909;BME280;36247;51.952;6.146;2023-03-13T01:34:50;99923.28;;;8.41;100.00
29909;BME280;36247;51.952;6.146;2023-03-13T01:37:16;99911.03;;;8.46;100.00
29909;BME280;36247;51.952;6.146;2023-03-13T01:39:42;99896.13;;;8.48;100.00
29909;BME280;36247;51.952;6.146;2023-03-13T01:42:07;99886.41;;;8.45;100.00
29909;BME280;36247;51.952;6.146;2023-03-13T01:44:51;99890.84;;;8.51;100.00
29909;BME280;36247;51.952;6.146;2023-03-13T01:47:16;99883.81;;;8.53;100.00
29909;BME280;36247;51.952;6.146;2023-03-13T01:49:55;99874.13;;;8.54;100.00
29909;BME280;36247;51.952;6.146;2023-03-13T01:52:50;99876.78;;;8.55;100.00
29909;BME280;36247;51.952;6.146;2023-03-13T01:55:24;99853.03;;;8.57;100.00
29909;BME280;36247;51.952;6.146;2023-03-13T01:57:53;99850.44;;;8.58;100.00
29909;BME280;36247;51.952;6.146;2023-03-13T02:00:24;99838.09;;;8.60;100.00
29909;BME280;36247;51.952;6.146;2023-03-13T02:02:54;99832.84;;;8.63;100.00
29909;BME280;36247;51.952;6.146;2023-03-13T02:05:23;99844.28;;;8.67;100.00
29909;BME280;36247;51.952;6.146;2023-03-13T02:07:55;99832.88;;;8.70;100.00
29909;BME280;36247;51.952;6.146;2023-03-13T02:10:22;99816.13;;;8.63;100.00
29909;BME280;36247;51.952;6.146;2023-03-13T02:12:49;99815.25;;;8.65;100.00
29909;BME280;36247;51.952;6.146;2023-03-13T02:15:18;99817.03;;;8.68;100.00
29909;BME280;36247;51.952;6.146;2023-03-13T02:17:45;99807.34;;;8.70;100.00
29909;BME280;36247;51.952;6.146;2023-03-13T02:20:13;99802.13;;;8.78;100.00
29909;BME280;36247;51.952;6.146;2023-03-13T02:22:47;99803.88;;;8.85;100.00
29909;BME280;36247;51.952;6.146;2023-03-13T02:28:11;99788.09;;;8.90;100.00
29909;BME280;36247;51.952;6.146;2023-03-13T02:30:41;99781.91;;;8.94;100.00
29909;BME280;36247;51.952;6.146;2023-03-13T02:33:08;99774.88;;;8.96;100.00
29909;BME280;36247;51.952;6.146;2023-03-13T02:35:35;99765.19;;;8.99;100.00
29909;BME280;36247;51.952;6.146;2023-03-13T02:38:07;99769.63;;;9.02;100.00
29909;BME280;36247;51.952;6.146;2023-03-13T02:40:39;99759.06;;;9.00;100.00
29909;BME280;36247;51.952;6.146;2023-03-13T02:43:14;99748.50;;;9.07;100.00
29909;BME280;36247;51.952;6.146;2023-03-13T02:45:41;99737.94;;;9.10;100.00
29909;BME280;36247;51.952;6.146;2023-03-13T02:48:08;99727.38;;;9.13;100.00
29909;BME280;36247;51.952;6.146;2023-03-13T02:50:35;99718.56;;;9.17;100.00
29909;BME280;36247;51.952;6.146;2023-03-13T02:53:05;99705.34;;;9.18;100.00
29909;BME280;36247;51.952;6.146;2023-03-13T02:55:38;99700.06;;;9.23;100.00
29909;BME280;36247;51.952;6.146;2023-03-13T02:58:04;99699.22;;;9.26;100.00
29909;BME280;36247;51.952;6.146;2023-03-13T03:00:33;99704.50;;;9.24;100.00
29909;BME280;36247;51.952;6.146;2023-03-13T03:03:00;99700.94;;;9.27;100.00
29909;BME280;36247;51.952;6.146;2023-03-13T03:05:25;99701.84;;;9.29;100.00
29909;BME280;36247;51.952;6.146;2023-03-13T03:07:51;99714.16;;;9.31;100.00
29909;BME280;36247;51.952;6.146;2023-03-13T03:10:17;99705.38;;;9.37;100.00
29909;BME280;36247;51.952;6.146;2023-03-13T03:12:44;99708.91;;;9.45;100.00
29909;BME280;36247;51.952;6.146;2023-03-13T03:15:10;99700.97;;;9.44;100.00
29909;BME280;36247;51.952;6.146;2023-03-13T03:17:39;99698.34;;;9.36;100.00
29909;BME280;36247;51.952;6.146;2023-03-13T03:20:05;99687.75;;;9.44;100.00
29909;BME280;36247;51.952;6.146;2023-03-13T03:22:38;99700.09;;;9.56;100.00
29909;BME280;36247;51.952;6.146;2023-03-13T03:25:05;99700.09;;;9.63;100.00
29909;BME280;36247;51.952;6.146;2023-03-13T03:27:31;99714.19;;;9.65;100.00
29909;BME280;36247;51.952;6.146;2023-03-13T03:29:56;99706.25;;;9.65;100.00
29909;BME280;36247;51.952;6.146;2023-03-13T03:32:22;99702.72;;;9.76;100.00
29909;BME280;36247;51.952;6.146;2023-03-13T03:34:47;99705.34;;;9.82;100.00
29909;BME280;36247;51.952;6.146;2023-03-13T03:37:13;99693.03;;;9.84;100.00
29909;BME280;36247;51.952;6.146;2023-03-13T03:39:38;99693.88;;;9.91;100.00
29909;BME280;36247;51.952;6.146;2023-03-13T03:42:05;99699.16;;;9.94;100.00
29909;BME280;36247;51.952;6.146;2023-03-13T03:44:30;99692.13;;;9.97;100.00
29909;BME280;36247;51.952;6.146;2023-03-13T03:46:58;99682.41;;;9.99;100.00
29909;BME280;36247;51.952;6.146;2023-03-13T03:49:25;99685.03;;;9.99;100.00
29909;BME280;36247;51.952;6.146;2023-03-13T03:51:51;99691.19;;;10.03;100.00
29909;BME280;36247;51.952;6.146;2023-03-13T03:54:23;99678.88;;;10.05;100.00
29909;BME280;36247;51.952;6.146;2023-03-13T03:56:49;99677.09;;;10.05;100.00
29909;BME280;36247;51.952;6.146;2023-03-13T03:59:14;99683.25;;;10.04;100.00
29909;BME280;36247;51.952;6.146;2023-03-13T04:01:43;99675.31;;;10.04;100.00
29909;BME280;36247;51.952;6.146;2023-03-13T04:04:09;99681.50;;;10.10;100.00
29909;BME280;36247;51.952;6.146;2023-03-13T04:06:37;99665.59;;;10.11;100.00
29909;BME280;36247;51.952;6.146;2023-03-13T04:09:04;99675.31;;;10.14;100.00
29909;BME280;36247;51.952;6.146;2023-03-13T04:11:31;99675.31;;;10.17;100.00
29909;BME280;36247;51.952;6.146;2023-03-13T04:13:56;99667.34;;;10.20;100.00
29909;BME280;36247;51.952;6.146;2023-03-13T04:16:23;99666.44;;;10.21;100.00
29909;BME280;36247;51.952;6.146;2023-03-13T04:18:49;99669.09;;;10.24;100.00
29909;BME280;36247;51.952;6.146;2023-03-13T04:21:16;99665.53;;;10.31;100.00
29909;BME280;36247;51.952;6.146;2023-03-13T04:23:46;99654.94;;;10.31;100.00
29909;BME280;36247;51.952;6.146;2023-03-13T04:26:12;99653.19;;;10.36;100.00
29909;BME280;36247;51.952;6.146;2023-03-13T04:28:39;99642.63;;;10.33;100.00
29909;BME280;36247;51.952;6.146;2023-03-13T04:31:07;99654.94;;;10.37;100.00
29909;BME280;36247;51.952;6.146;2023-03-13T04:33:51;99639.06;;;10.40;100.00
29909;BME280;36247;51.952;6.146;2023-03-13T04:36:31;99640.81;;;10.38;100.00
29909;BME280;36247;51.952;6.146;2023-03-13T04:38:57;99645.19;;;10.49;100.00
29909;BME280;36247;51.952;6.146;2023-03-13T04:41:41;99639.00;;;10.53;100.00
29909;BME280;36247;51.952;6.146;2023-03-13T04:44:18;99633.66;;;10.59;100.00
29909;BME280;36247;51.952;6.146;2023-03-13T04:47:11;99625.72;;;10.59;100.00
29909;BME280;36247;51.952;6.146;2023-03-13T04:49:59;99632.75;;;10.65;100.00
29909;BME280;36247;51.952;6.146;2023-03-13T04:52:45;99625.66;;;10.68;100.00
29909;BME280;36247;51.952;6.146;2023-03-13T04:55:22;99611.50;;;10.72;100.00
29909;BME280;36247;51.952;6.146;2023-03-13T04:58:15;99605.25;;;10.83;100.00
29909;BME280;36247;51.952;6.146;2023-03-13T05:00:59;99604.31;;;10.91;100.00
29909;BME280;36247;51.952;6.146;2023-03-13T05:03:44;99576.06;;;10.89;100.00
29909;BME280;36247;51.952;6.146;2023-03-13T05:06:28;99570.72;;;10.93;100.00
29909;BME280;36247;51.952;6.146;2023-03-13T05:09:03;99582.16;;;10.97;100.00
29909;BME280;36247;51.952;6.146;2023-03-13T05:11:47;99556.53;;;11.02;100.00
29909;BME280;36247;51.952;6.146;2023-03-13T05:14:49;99575.09;;;10.99;100.00
29909;BME280;36247;51.952;6.146;2023-03-13T05:17:24;99576.81;;;11.06;100.00
29909;BME280;36247;51.952;6.146;2023-03-13T05:20:04;99567.06;;;11.08;100.00
29909;BME280;36247;51.952;6.146;2023-03-13T05:22:51;99558.25;;;11.09;100.00
29909;BME280;36247;51.952;6.146;2023-03-13T05:25:45;99565.31;;;11.07;100.00
29909;BME280;36247;51.952;6.146;2023-03-13T05:28:21;99567.94;;;11.10;100.00
29909;BME280;36247;51.952;6.146;2023-03-13T05:30:47;99560.88;;;11.13;100.00
29909;BME280;36247;51.952;6.146;2023-03-13T05:33:38;99566.06;;;11.22;100.00
29909;BME280;36247;51.952;6.146;2023-03-13T05:36:22;99564.28;;;11.24;100.00
29909;BME280;36247;51.952;6.146;2023-03-13T05:39:01;99558.03;;;11.31;100.00
29909;BME280;36247;51.952;6.146;2023-03-13T05:41:45;99562.41;;;11.37;100.00
29909;BME280;36247;51.952;6.146;2023-03-13T05:44:25;99561.56;;;11.32;100.00
29909;BME280;36247;51.952;6.146;2023-03-13T05:47:11;99555.31;;;11.36;100.00
29909;BME280;36247;51.952;6.146;2023-03-13T05:50:05;99562.31;;;11.43;100.00
29909;BME280;36247;51.952;6.146;2023-03-13T05:52:35;99563.19;;;11.43;100.00
29909;BME280;36247;51.952;6.146;2023-03-13T05:55:12;99555.25;;;11.43;100.00
29909;BME280;36247;51.952;6.146;2023-03-13T05:57:47;99553.47;;;11.47;100.00
29909;BME280;36247;51.952;6.146;2023-03-13T06:00:45;99562.22;;;11.54;100.00
29909;BME280;36247;51.952;6.146;2023-03-13T06:03:29;99559.56;;;11.52;100.00
29909;BME280;36247;51.952;6.146;2023-03-13T06:05:57;99556.84;;;11.63;100.00
29909;BME280;36247;51.952;6.146;2023-03-13T06:08:37;99557.72;;;11.60;100.00
29909;BME280;36247;51.952;6.146;2023-03-13T06:11:03;99562.13;;;11.64;100.00
29909;BME280;36247;51.952;6.146;2023-03-13T06:13:30;99559.53;;;11.60;100.00
29909;BME280;36247;51.952;6.146;2023-03-13T06:16:00;99549.72;;;11.65;100.00
29909;BME280;36247;51.952;6.146;2023-03-13T06:18:46;99553.16;;;11.73;100.00
29909;BME280;36247;51.952;6.146;2023-03-13T06:21:12;99549.69;;;11.68;100.00
29909;BME280;36247;51.952;6.146;2023-03-13T06:23:38;99552.31;;;11.71;100.00
29909;BME280;36247;51.952;6.146;2023-03-13T06:26:04;99552.25;;;11.76;100.00
29909;BME280;36247;51.952;6.146;2023-03-13T06:28:29;99559.13;;;11.94;100.00
29909;BME280;36247;51.952;6.146;2023-03-13T06:31:00;99541.47;;;11.88;100.00
29909;BME280;36247;51.952;6.146;2023-03-13T06:33:26;99542.41;;;11.87;100.00
29909;BME280;36247;51.952;6.146;2023-03-13T06:35:51;99549.44;;;11.87;100.00
29909;BME280;36247;51.952;6.146;2023-03-13T06:38:16;99552.09;;;11.88;100.00
29909;BME280;36247;51.952;6.146;2023-03-13T06:40:42;99543.22;;;11.94;100.00
29909;BME280;36247;51.952;6.146;2023-03-13T06:43:08;99533.47;;;11.96;100.00
29909;BME280;36247;51.952;6.146;2023-03-13T06:45:35;99522.00;;;11.91;100.00
29909;BME280;36247;51.952;6.146;2023-03-13T06:48:01;99527.16;;;12.03;100.00
29909;BME280;36247;51.952;6.146;2023-03-13T06:50:26;99537.78;;;12.06;100.00
29909;BME280;36247;51.952;6.146;2023-03-13T06:52:52;99513.78;;;12.14;100.00
29909;BME280;36247;51.952;6.146;2023-03-13T06:55:17;99520.00;;;12.10;100.00
29909;BME280;36247;51.952;6.146;2023-03-13T06:57:43;99506.75;;;12.10;100.00
29909;BME280;36247;51.952;6.146;2023-03-13T07:00:10;99501.19;;;12.25;100.00
29909;BME280;36247;51.952;6.146;2023-03-13T07:02:36;99522.34;;;12.31;100.00
29909;BME280;36247;51.952;6.146;2023-03-13T07:05:01;99511.78;;;12.27;100.00
29909;BME280;36247;51.952;6.146;2023-03-13T07:07:30;99521.47;;;12.32;100.00
29909;BME280;36247;51.952;6.146;2023-03-13T07:09:58;99508.25;;;12.28;100.00
29909;BME280;36247;51.952;6.146;2023-03-13T07:12:23;99510.72;;;12.40;100.00
29909;BME280;36247;51.952;6.146;2023-03-13T07:14:49;99524.91;;;12.41;100.00
29909;BME280;36247;51.952;6.146;2023-03-13T07:17:14;99513.41;;;12.37;100.00
29909;BME280;36247;51.952;6.146;2023-03-13T07:19:40;99524.03;;;12.39;100.00
29909;BME280;36247;51.952;6.146;2023-03-13T07:22:05;99498.31;;;12.42;100.00
29909;BME280;36247;51.952;6.146;2023-03-13T07:24:31;99497.41;;;12.43;100.00
29909;BME280;36247;51.952;6.146;2023-03-13T07:26:57;99497.41;;;12.43;100.00
29909;BME280;36247;51.952;6.146;2023-03-13T07:29:22;99507.06;;;12.49;100.00
29909;BME280;36247;51.952;6.146;2023-03-13T07:31:48;99506.09;;;12.53;100.00
29909;BME280;36247;51.952;6.146;2023-03-13T07:34:14;99507.88;;;12.54;100.00
29909;BME280;36247;51.952;6.146;2023-03-13T07:36:39;99505.13;;;12.60;100.00
29909;BME280;36247;51.952;6.146;2023-03-13T07:39:06;99501.59;;;12.58;100.00
29909;BME280;36247;51.952;6.146;2023-03-13T07:41:32;99516.63;;;12.61;100.00
29909;BME280;36247;51.952;6.146;2023-03-13T07:43:58;99538.66;;;12.67;100.00
29909;BME280;36247;51.952;6.146;2023-03-13T07:46:24;99523.63;;;12.65;100.00
29909;BME280;36247;51.952;6.146;2023-03-13T07:48:49;99510.34;;;12.66;100.00
29909;BME280;36247;51.952;6.146;2023-03-13T07:51:21;99515.63;;;12.68;100.00
29909;BME280;36247;51.952;6.146;2023-03-13T07:53:47;99514.66;;;12.74;100.00
29909;BME280;36247;51.952;6.146;2023-03-13T07:56:14;99498.66;;;12.77;100.00
29909;BME280;36247;51.952;6.146;2023-03-13T07:58:42;99494.19;;;12.77;100.00
29909;BME280;36247;51.952;6.146;2023-03-13T08:01:22;99505.59;;;12.85;100.00
29909;BME280;36247;51.952;6.146;2023-03-13T08:03:48;99498.53;;;12.83;100.00
29909;BME280;36247;51.952;6.146;2023-03-13T08:06:17;99499.50;;;12.79;100.00
29909;BME280;36247;51.952;6.146;2023-03-13T08:08:44;99494.06;;;12.85;100.00
29909;BME280;36247;51.952;6.146;2023-03-13T08:11:11;99505.50;;;12.90;100.00
29909;BME280;36247;51.952;6.146;2023-03-13T08:13:38;99508.22;;;12.87;100.00
29909;BME280;36247;51.952;6.146;2023-03-13T08:16:20;99509.09;;;12.87;100.00
29909;BME280;36247;51.952;6.146;2023-03-13T08:18:48;99510.84;;;12.88;100.00
29909;BME280;36247;51.952;6.146;2023-03-13T08:21:19;99546.38;;;12.83;100.00
29909;BME280;36247;51.952;6.146;2023-03-13T08:23:46;99505.59;;;12.85;100.00
29909;BME280;36247;51.952;6.146;2023-03-13T08:26:17;99520.63;;;12.86;100.00
29909;BME280;36247;51.952;6.146;2023-03-13T08:28:45;99517.84;;;12.93;100.00
29909;BME280;36247;51.952;6.146;2023-03-13T08:31:16;99512.47;;;12.99;100.00
29909;BME280;36247;51.952;6.146;2023-03-13T08:33:43;99511.47;;;13.03;100.00
29909;BME280;36247;51.952;6.146;2023-03-13T08:38:38;99493.50;;;13.17;100.00
29909;BME280;36247;51.952;6.146;2023-03-13T08:41:06;99503.34;;;13.14;100.00
29909;BME280;36247;51.952;6.146;2023-03-13T08:43:32;99499.78;;;13.13;100.00
29909;BME280;36247;51.952;6.146;2023-03-13T08:45:57;99495.41;;;13.11;100.00
29909;BME280;36247;51.952;6.146;2023-03-13T08:48:23;99496.19;;;13.16;100.00
29909;BME280;36247;51.952;6.146;2023-03-13T08:53:27;99496.22;;;13.14;100.00
29909;BME280;36247;51.952;6.146;2023-03-13T08:55:53;99493.56;;;13.14;100.00
29909;BME280;36247;51.952;6.146;2023-03-13T08:58:18;99511.25;;;13.17;100.00
29909;BME280;36247;51.952;6.146;2023-03-13T09:00:44;99507.75;;;13.13;100.00
29909;BME280;36247;51.952;6.146;2023-03-13T09:03:09;99520.16;;;13.14;100.00
29909;BME280;36247;51.952;6.146;2023-03-13T09:05:36;99512.28;;;13.08;100.00
29909;BME280;36247;51.952;6.146;2023-03-13T09:08:02;99505.22;;;13.07;100.00
29909;BME280;36247;51.952;6.146;2023-03-13T09:10:27;99502.44;;;13.13;100.00
29909;BME280;36247;51.952;6.146;2023-03-13T09:12:53;99482.94;;;13.14;100.00
29909;BME280;36247;51.952;6.146;2023-03-13T09:15:19;99492.63;;;13.18;100.00
29909;BME280;36247;51.952;6.146;2023-03-13T09:17:44;99511.09;;;13.25;100.00
29909;BME280;36247;51.952;6.146;2023-03-13T09:20:10;99502.97;;;13.34;100.00
29909;BME280;36247;51.952;6.146;2023-03-13T09:22:36;99472.03;;;13.28;100.00
29909;BME280;36247;51.952;6.146;2023-03-13T09:25:01;99496.91;;;13.24;100.00
29909;BME280;36247;51.952;6.146;2023-03-13T09:27:27;99526.31;;;13.16;100.00
29909;BME280;36247;51.952;6.146;2023-03-13T09:29:53;99498.38;;;13.44;100.00
29909;BME280;36247;51.952;6.146;2023-03-13T09:32:18;99488.66;;;13.41;100.00
29909;BME280;36247;51.952;6.146;2023-03-13T09:34:45;99451.13;;;13.55;100.00
29909;BME280;36247;51.952;6.146;2023-03-13T09:37:11;99479.78;;;13.86;100.00
29909;BME280;36247;51.952;6.146;2023-03-13T09:39:37;99470.69;;;13.96;100.00
29909;BME280;36247;51.952;6.146;2023-03-13T09:44:32;99473.09;;;14.07;100.00
29909;BME280;36247;51.952;6.146;2023-03-13T09:47:00;99430.22;;;14.55;100.00
29909;BME280;36247;51.952;6.146;2023-03-13T09:49:50;99436.31;;;14.60;100.00
29909;BME280;36247;51.952;6.146;2023-03-13T09:52:30;99427.88;;;14.79;100.00
29909;BME280;36247;51.952;6.146;2023-03-13T09:55:03;99430.53;;;14.43;100.00
29909;BME280;36247;51.952;6.146;2023-03-13T10:00:10;99429.97;;;14.28;100.00
29909;BME280;36247;51.952;6.146;2023-03-13T10:02:39;99414.34;;;14.51;100.00
29909;BME280;36247;51.952;6.146;2023-03-13T10:05:13;99402.34;;;14.33;100.00
29909;BME280;36247;51.952;6.146;2023-03-13T10:07:39;99422.91;;;14.27;100.00
29909;BME280;36247;51.952;6.146;2023-03-13T10:10:20;99414.06;;;14.25;100.00
29909;BME280;36247;51.952;6.146;2023-03-13T10:12:52;99420.28;;;14.26;100.00
29909;BME280;36247;51.952;6.146;2023-03-13T10:18:26;99412.19;;;14.31;100.00
29909;BME280;36247;51.952;6.146;2023-03-13T10:20:53;99415.59;;;14.36;100.00
29909;BME280;36247;51.952;6.146;2023-03-13T10:23:37;99413.78;;;14.38;100.00
29909;BME280;36247;51.952;6.146;2023-03-13T10:26:04;99409.13;;;14.46;100.00
29909;BME280;36247;51.952;6.146;2023-03-13T10:28:30;99416.25;;;14.45;100.00
29909;BME280;36247;51.952;6.146;2023-03-13T10:31:07;99418.75;;;14.52;100.00
29909;BME280;36247;51.952;6.146;2023-03-13T10:33:36;99407.16;;;14.54;100.00
29909;BME280;36247;51.952;6.146;2023-03-13T10:36:10;99407.09;;;14.57;100.00
29909;BME280;36247;51.952;6.146;2023-03-13T10:38:51;99390.13;;;14.60;100.00
29909;BME280;36247;51.952;6.146;2023-03-13T10:41:26;99386.63;;;14.58;100.00
29909;BME280;36247;51.952;6.146;2023-03-13T10:43:57;99386.44;;;14.66;100.00
29909;BME280;36247;51.952;6.146;2023-03-13T10:46:25;99383.34;;;14.83;100.00
29909;BME280;36247;51.952;6.146;2023-03-13T10:48:53;99370.84;;;14.85;100.00
29909;BME280;36247;51.952;6.146;2023-03-13T10:51:22;99373.84;;;15.05;100.00
29909;BME280;36247;51.952;6.146;2023-03-13T10:53:48;99368.78;;;14.96;100.00
29909;BME280;36247;51.952;6.146;2023-03-13T10:56:15;99378.22;;;15.08;100.00
29909;BME280;36247;51.952;6.146;2023-03-13T10:58:52;99372.59;;;15.48;100.00
29909;BME280;36247;51.952;6.146;2023-03-13T11:01:23;99374.03;;;15.60;100.00
29909;BME280;36247;51.952;6.146;2023-03-13T11:03:51;99345.31;;;15.39;100.00
29909;BME280;36247;51.952;6.146;2023-03-13T11:06:27;99352.00;;;15.22;100.00
29909;BME280;36247;51.952;6.146;2023-03-13T11:08:58;99379.81;;;15.45;100.00
29909;BME280;36247;51.952;6.146;2023-03-13T11:11:24;99353.97;;;15.77;100.00
29909;BME280;36247;51.952;6.146;2023-03-13T11:14:06;99354.00;;;15.75;100.00
29909;BME280;36247;51.952;6.146;2023-03-13T11:16:37;99348.53;;;15.50;100.00
29909;BME280;36247;51.952;6.146;2023-03-13T11:24:51;99347.59;;;15.52;100.00
29909;BME280;36247;51.952;6.146;2023-03-13T11:38:39;99312.03;;;15.80;100.00
29909;BME280;36247;51.952;6.146;2023-03-13T11:52:22;99305.88;;;16.82;100.00
29909;BME280;36247;51.952;6.146;2023-03-13T11:55:10;99301.53;;;17.74;100.00
29909;BME280;36247;51.952;6.146;2023-03-13T12:00:47;99277.03;;;17.39;100.00
29909;BME280;36247;51.952;6.146;2023-03-13T12:03:35;99263.75;;;18.25;100.00
29909;BME280;36247;51.952;6.146;2023-03-13T12:06:05;99266.16;;;17.44;100.00
29909;BME280;36247;51.952;6.146;2023-03-13T12:08:47;99256.72;;;18.22;100.00
29909;BME280;36247;51.952;6.146;2023-03-13T12:11:25;99254.50;;;18.11;100.00
29909;BME280;36247;51.952;6.146;2023-03-13T12:16:56;99263.47;;;18.10;100.00
29909;BME280;36247;51.952;6.146;2023-03-13T12:19:33;99250.44;;;18.83;100.00
29909;BME280;36247;51.952;6.146;2023-03-13T12:22:14;99251.22;;;19.44;100.00
29909;BME280;36247;51.952;6.146;2023-03-13T12:24:55;99243.22;;;18.03;100.00
29909;BME280;36247;51.952;6.146;2023-03-13T12:27:50;99252.94;;;17.39;100.00
29909;BME280;36247;51.952;6.146;2023-03-13T12:35:28;99230.13;;;16.58;100.00
29909;BME280;36247;51.952;6.146;2023-03-13T12:38:02;99235.47;;;16.58;100.00
29909;BME280;36247;51.952;6.146;2023-03-13T12:43:35;99225.06;;;16.99;100.00
29909;BME280;36247;51.952;6.146;2023-03-13T12:52:11;99249.06;;;17.24;100.00
29909;BME280;36247;51.952;6.146;2023-03-13T12:59:46;99204.56;;;16.74;100.00
29909;BME280;36247;51.952;6.146;2023-03-13T13:02:28;99205.81;;;16.89;100.00
29909;BME280;36247;51.952;6.146;2023-03-13T13:04:57;99200.88;;;17.02;100.00
29909;BME280;36247;51.952;6.146;2023-03-13T13:07:36;99186.06;;;16.68;100.00
29909;BME280;36247;51.952;6.146;2023-03-13T13:12:39;99193.69;;;17.03;100.00
29909;BME280;36247;51.952;6.146;2023-03-13T13:23:33;99171.41;;;17.48;100.00
29909;BME280;36247;51.952;6.146;2023-03-13T13:28:56;99176.28;;;17.15;100.00
29909;BME280;36247;51.952;6.146;2023-03-13T13:39:48;99155.47;;;18.08;95.73
29909;BME280;36247;51.952;6.146;2023-03-13T13:44:59;99163.19;;;18.75;76.23
29909;BME280;36247;51.952;6.146;2023-03-13T13:47:27;99206.13;;;18.35;71.60
29909;BME280;36247;51.952;6.146;2023-03-13T13:49:56;99174.44;;;18.04;73.52
29909;BME280;36247;51.952;6.146;2023-03-13T13:52:38;99180.59;;;17.63;76.40
29909;BME280;36247;51.952;6.146;2023-03-13T13:58:02;99156.44;;;17.42;84.18
29909;BME280;36247;51.952;6.146;2023-03-13T14:00:36;99161.50;;;18.13;86.47
29909;BME280;36247;51.952;6.146;2023-03-13T14:03:17;99154.09;;;17.77;85.90
29909;BME280;36247;51.952;6.146;2023-03-13T14:05:46;99147.16;;;17.51;92.75
29909;BME280;36247;51.952;6.146;2023-03-13T14:10:41;99133.97;;;17.67;95.04
29909;BME280;36247;51.952;6.146;2023-03-13T14:13:17;99122.06;;;18.95;81.63
29909;BME280;36247;51.952;6.146;2023-03-13T14:15:47;99112.66;;;18.46;82.83
29909;BME280;36247;51.952;6.146;2023-03-13T14:18:19;99113.56;;;17.85;84.39
29909;BME280;36247;51.952;6.146;2023-03-13T14:23:14;99114.22;;;17.27;93.72
29909;BME280;36247;51.952;6.146;2023-03-13T14:25:48;99105.41;;;18.29;86.51
29909;BME280;36247;51.952;6.146;2023-03-13T14:28:21;99114.66;;;19.71;77.36
29909;BME280;36247;51.952;6.146;2023-03-13T14:30:49;99087.34;;;20.32;71.47
29909;BME280;36247;51.952;6.146;2023-03-13T14:33:15;99087.34;;;20.32;69.06
29909;BME280;36247;51.952;6.146;2023-03-13T14:35:41;99106.25;;;19.79;69.29
29909;BME280;36247;51.952;6.146;2023-03-13T14:38:19;99090.59;;;20.05;64.87
29909;BME280;36247;51.952;6.146;2023-03-13T14:40:45;99086.38;;;19.64;64.17
29909;BME280;36247;51.952;6.146;2023-03-13T14:44:02;99087.44;;;18.50;74.23
29909;BME280;36247;51.952;6.146;2023-03-13T14:46:35;99094.78;;;18.47;74.45
29909;BME280;36247;51.952;6.146;2023-03-13T14:49:26;99086.50;;;18.32;79.88
29909;BME280;36247;51.952;6.146;2023-03-13T14:54:56;99103.41;;;19.28;69.68
29909;BME280;36247;51.952;6.146;2023-03-13T14:57:24;99077.97;;;20.23;65.97
29909;BME280;36247;51.952;6.146;2023-03-13T14:59:51;99085.09;;;19.54;65.15